createdAt,value
2022-12-20T00:00:44.503Z,50.00
2022-12-20T00:01:44.609Z,50.60
2022-12-20T00:02:44.518Z,54.00
2022-12-20T00:03:44.549Z,56.40
2022-12-20T00:05:16.396Z,55.20
2022-12-20T00:05:44.470Z,51.40
2022-12-20T00:06:45.453Z,48.70
2022-12-20T00:07:44.468Z,54.20
2022-12-20T00:08:44.472Z,47.30
2022-12-20T00:09:44.441Z,49.20
2022-12-20T00:10:44.419Z,50.70
2022-12-20T00:11:44.453Z,48.90
2022-12-20T00:12:44.427Z,53.30
2022-12-20T00:14:17.381Z,48.90
2022-12-20T00:14:44.409Z,50.10
2022-12-20T00:15:45.263Z,48.00
2022-12-20T00:16:44.381Z,48.70
2022-12-20T00:17:44.489Z,52.80
2022-12-20T00:18:44.400Z,52.10
2022-12-20T00:19:44.392Z,51.10
2022-12-20T00:20:44.576Z,51.10
2022-12-20T00:21:45.349Z,54.60
2022-12-20T00:22:44.339Z,55.80
2022-12-20T00:23:44.367Z,54.70
2022-12-20T00:24:44.323Z,53.90
2022-12-20T00:25:44.328Z,57.50
2022-12-20T00:26:44.379Z,50.50
2022-12-20T00:27:44.308Z,52.70
2022-12-20T00:28:44.308Z,57.20
2022-12-20T00:29:44.329Z,55.70
2022-12-20T00:30:44.295Z,53.40
2022-12-20T00:31:44.340Z,55.50
2022-12-20T00:32:44.277Z,52.50
2022-12-20T00:33:44.287Z,55.70
2022-12-20T00:34:44.253Z,55.00
2022-12-20T00:35:44.267Z,60.30
2022-12-20T00:36:44.237Z,54.50
2022-12-20T00:38:16.128Z,53.40
2022-12-20T00:38:44.215Z,54.90
2022-12-20T00:39:44.249Z,53.30
2022-12-20T00:40:44.222Z,52.50
2022-12-20T00:41:44.829Z,52.50
2022-12-20T00:42:44.218Z,51.80
2022-12-20T00:43:44.177Z,51.10
2022-12-20T00:44:44.177Z,51.50
2022-12-20T00:45:44.150Z,50.80
2022-12-20T00:46:45.242Z,49.20
2022-12-20T00:47:44.184Z,50.80
2022-12-20T00:48:44.142Z,49.20
2022-12-20T00:49:44.126Z,52.60
2022-12-20T00:50:44.197Z,56.10
2022-12-20T00:51:44.174Z,49.40
2022-12-20T00:52:44.112Z,50.40
2022-12-20T00:53:44.147Z,52.50
2022-12-20T00:54:44.086Z,52.40
2022-12-20T00:55:44.119Z,49.40
2022-12-20T00:56:44.117Z,53.40
2022-12-20T00:57:44.117Z,57.50
2022-12-20T00:58:44.087Z,57.20
2022-12-20T00:59:44.039Z,59.40
2022-12-20T01:00:44.076Z,56.90
2022-12-20T01:01:46.008Z,53.70
2022-12-20T01:02:44.207Z,53.60
2022-12-20T01:03:44.049Z,51.40
2022-12-20T01:04:44.015Z,55.40
2022-12-20T01:05:44.007Z,55.30
2022-12-20T01:06:44.031Z,53.40
2022-12-20T01:07:43.981Z,53.80
2022-12-20T01:08:45.288Z,53.40
2022-12-20T01:09:43.990Z,50.40
2022-12-20T01:10:43.965Z,51.20
2022-12-20T01:11:44.819Z,50.00
2022-12-20T01:12:43.940Z,49.70
2022-12-20T01:13:44.003Z,50.30
2022-12-20T01:14:43.962Z,49.10
2022-12-20T01:15:43.920Z,49.10
2022-12-20T01:16:44.009Z,48.80
2022-12-20T01:17:44.800Z,49.70
2022-12-20T01:18:43.906Z,50.20
2022-12-20T01:19:43.907Z,53.60
2022-12-20T01:20:43.920Z,49.70
2022-12-20T01:21:43.877Z,54.10
2022-12-20T01:22:47.609Z,49.60
2022-12-20T01:23:44.843Z,49.50
2022-12-20T01:24:43.895Z,45.10
2022-12-20T01:25:43.829Z,51.00
2022-12-20T01:26:44.915Z,48.40
2022-12-20T01:27:43.832Z,50.20
2022-12-20T01:28:43.822Z,48.00
2022-12-20T01:29:44.668Z,51.80
2022-12-20T01:30:43.817Z,48.50
2022-12-20T01:31:44.917Z,50.50
2022-12-20T01:32:44.800Z,55.10
2022-12-20T01:33:43.797Z,55.20
2022-12-20T01:34:43.881Z,55.00
2022-12-20T01:35:44.315Z,54.50
2022-12-20T01:36:44.692Z,50.80
2022-12-20T01:37:43.764Z,51.90
2022-12-20T01:38:43.732Z,53.00
2022-12-20T01:39:43.751Z,49.70
2022-12-20T01:40:43.757Z,51.90
2022-12-20T01:41:43.754Z,52.40
2022-12-20T01:42:43.746Z,54.00
2022-12-20T01:43:45.639Z,46.50
2022-12-20T01:44:43.751Z,49.10
2022-12-20T01:45:43.784Z,52.90
2022-12-20T01:46:43.757Z,49.10
2022-12-20T01:47:43.668Z,49.80
2022-12-20T01:48:44.676Z,49.80
2022-12-20T01:49:45.003Z,47.20
2022-12-20T01:50:44.296Z,49.30
2022-12-20T01:51:43.667Z,46.10
2022-12-20T01:52:43.624Z,48.50
2022-12-20T01:53:43.618Z,47.90
2022-12-20T01:54:43.614Z,46.30
2022-12-20T01:55:43.625Z,45.60
2022-12-20T01:56:43.595Z,46.60
2022-12-20T01:57:43.611Z,45.60
2022-12-20T01:58:43.621Z,47.80
2022-12-20T01:59:43.583Z,48.80
2022-12-20T02:00:43.608Z,47.40
2022-12-20T02:01:44.308Z,49.30
2022-12-20T02:02:43.689Z,50.50
2022-12-20T02:03:43.652Z,46.30
2022-12-20T02:04:43.551Z,53.10
2022-12-20T02:05:43.527Z,50.20
2022-12-20T02:06:44.058Z,49.00
2022-12-20T02:07:44.308Z,53.70
2022-12-20T02:08:43.540Z,53.00
2022-12-20T02:09:43.524Z,48.80
2022-12-20T02:10:43.553Z,48.30
2022-12-20T02:11:43.507Z,49.30
2022-12-20T02:12:43.495Z,50.70
2022-12-20T02:13:43.623Z,49.70
2022-12-20T02:14:43.473Z,49.30
2022-12-20T02:15:43.460Z,49.40
2022-12-20T02:16:43.513Z,54.40
2022-12-20T02:17:44.145Z,53.30
2022-12-20T02:18:43.494Z,54.60
2022-12-20T02:19:43.452Z,56.00
2022-12-20T02:20:43.409Z,50.30
2022-12-20T02:21:44.223Z,53.70
2022-12-20T02:22:43.386Z,54.90
2022-12-20T02:23:43.376Z,52.90
2022-12-20T02:24:44.822Z,54.50
2022-12-20T02:25:43.386Z,51.80
2022-12-20T02:26:43.387Z,56.00
2022-12-20T02:27:43.370Z,54.30
2022-12-20T02:28:44.293Z,54.00
2022-12-20T02:29:43.379Z,54.40
2022-12-20T02:30:43.330Z,52.40
2022-12-20T02:31:43.413Z,53.30
2022-12-20T02:32:43.372Z,55.60
2022-12-20T02:33:43.329Z,55.50
2022-12-20T02:34:43.330Z,58.00
2022-12-20T02:35:43.368Z,59.50
2022-12-20T02:36:43.290Z,59.10
2022-12-20T02:37:43.293Z,57.90
2022-12-20T02:38:43.284Z,53.10
2022-12-20T02:39:43.277Z,54.90
2022-12-20T02:40:43.253Z,54.80
2022-12-20T02:41:43.283Z,54.10
2022-12-20T02:42:43.276Z,55.80
2022-12-20T02:43:43.268Z,57.20
2022-12-20T02:44:43.250Z,52.80
2022-12-20T02:45:43.265Z,52.30
2022-12-20T02:46:43.256Z,55.10
2022-12-20T02:47:43.186Z,51.20
2022-12-20T02:48:43.195Z,52.40
2022-12-20T02:49:43.208Z,53.80
2022-12-20T02:50:44.655Z,55.20
2022-12-20T02:51:44.156Z,56.50
2022-12-20T02:52:43.164Z,52.70
2022-12-20T02:53:43.273Z,57.80
2022-12-20T02:54:43.160Z,57.00
2022-12-20T02:55:43.169Z,57.20
2022-12-20T02:56:43.148Z,54.40
2022-12-20T02:57:43.145Z,56.80
2022-12-20T02:58:43.134Z,52.70
2022-12-20T02:59:43.108Z,58.20
2022-12-20T03:00:43.647Z,50.30
2022-12-20T03:01:43.173Z,51.00
2022-12-20T03:02:43.279Z,55.00
2022-12-20T03:03:43.786Z,53.10
2022-12-20T03:04:43.057Z,55.30
2022-12-20T03:05:43.067Z,54.50
2022-12-20T03:06:43.035Z,52.20
2022-12-20T03:07:43.064Z,54.00
2022-12-20T03:08:43.079Z,55.30
2022-12-20T03:09:43.082Z,56.70
2022-12-20T03:10:43.015Z,53.30
2022-12-20T03:11:42.997Z,55.10
2022-12-20T03:12:43.016Z,57.70
2022-12-20T03:13:43.003Z,55.70
2022-12-20T03:14:43.009Z,52.20
2022-12-20T03:15:42.979Z,53.60
2022-12-20T03:16:43.034Z,53.00
2022-12-20T03:17:42.993Z,54.60
2022-12-20T03:18:42.960Z,57.20
2022-12-20T03:19:42.959Z,51.10
2022-12-20T03:20:42.973Z,50.40
2022-12-20T03:21:42.915Z,51.40
2022-12-20T03:22:42.937Z,52.90
2022-12-20T03:23:42.922Z,52.00
2022-12-20T03:24:43.804Z,53.20
2022-12-20T03:25:42.911Z,50.80
2022-12-20T03:26:42.950Z,55.90
2022-12-20T03:27:42.888Z,53.50
2022-12-20T03:28:43.725Z,49.90
2022-12-20T03:29:42.896Z,52.40
2022-12-20T03:30:42.912Z,50.00
2022-12-20T03:31:43.723Z,50.70
2022-12-20T03:32:44.425Z,50.00
2022-12-20T03:33:42.954Z,47.50
2022-12-20T03:34:42.947Z,54.10
2022-12-20T03:35:42.818Z,54.20
2022-12-20T03:36:43.825Z,56.50
2022-12-20T03:37:42.835Z,49.40
2022-12-20T03:38:42.827Z,53.80
2022-12-20T03:39:42.786Z,52.00
2022-12-20T03:40:43.323Z,53.90
2022-12-20T03:41:42.838Z,64.40
2022-12-20T03:42:42.773Z,63.80
2022-12-20T03:43:42.786Z,68.50
2022-12-20T03:44:42.767Z,68.50
2022-12-20T03:45:43.729Z,79.60
2022-12-20T03:46:42.841Z,79.00
2022-12-20T04:02:51.063Z,47.00
2022-12-20T04:03:50.841Z,55.00
2022-12-20T04:04:50.744Z,53.00
2022-12-20T04:05:50.819Z,61.40
2022-12-20T04:06:50.728Z,59.40
2022-12-20T04:07:51.861Z,55.40
2022-12-20T04:08:51.880Z,59.60
2022-12-20T04:09:51.853Z,56.60
2022-12-20T04:10:51.855Z,57.20
2022-12-20T04:11:51.836Z,54.80
2022-12-20T04:12:51.835Z,55.20
2022-12-20T04:13:51.831Z,52.10
2022-12-20T04:14:51.808Z,53.60
2022-12-20T04:15:56.669Z,49.80
2022-12-20T04:16:53.828Z,50.90
2022-12-20T04:17:51.810Z,46.50
2022-12-20T04:18:51.782Z,48.40
2022-12-20T04:19:51.791Z,46.80
2022-12-20T04:20:51.768Z,43.90
2022-12-20T04:21:51.783Z,46.70
2022-12-20T04:22:51.769Z,46.70
2022-12-20T04:23:51.772Z,45.80
2022-12-20T04:24:51.741Z,50.10
2022-12-20T04:25:51.751Z,52.00
2022-12-20T04:26:51.740Z,58.20
2022-12-20T04:27:51.732Z,81.40
2022-12-20T04:28:51.744Z,77.80
2022-12-20T04:29:51.735Z,63.50
2022-12-20T04:30:51.753Z,54.00
2022-12-20T04:31:51.813Z,43.90
2022-12-20T04:32:51.687Z,44.40
2022-12-20T04:33:51.669Z,38.80
2022-12-20T04:34:51.656Z,36.40
2022-12-20T04:35:51.745Z,37.60
2022-12-20T04:36:51.911Z,36.40
2022-12-20T04:37:51.681Z,37.00
2022-12-20T04:38:51.626Z,39.20
2022-12-20T04:39:51.616Z,35.20
2022-12-20T04:40:51.612Z,33.20
2022-12-20T04:41:51.602Z,36.10
2022-12-20T04:42:51.602Z,29.40
2022-12-20T04:43:51.587Z,32.00
2022-12-20T04:44:51.635Z,35.70
2022-12-20T04:45:51.590Z,31.00
2022-12-20T04:46:51.614Z,27.60
2022-12-20T04:47:51.560Z,31.50
2022-12-20T04:48:59.839Z,32.10
2022-12-20T04:49:53.558Z,30.90
2022-12-20T04:50:51.541Z,29.10
2022-12-20T04:51:51.515Z,29.70
2022-12-20T04:52:51.515Z,26.80
2022-12-20T04:53:51.534Z,31.00
2022-12-20T04:54:51.517Z,32.80
2022-12-20T04:55:51.520Z,28.00
2022-12-20T04:56:51.488Z,30.50
2022-12-20T04:57:51.486Z,27.80
2022-12-20T04:58:51.508Z,29.30
2022-12-20T04:59:51.476Z,31.50
2022-12-20T05:00:51.499Z,30.50
2022-12-20T05:01:51.549Z,32.00
2022-12-20T05:02:51.891Z,30.80
2022-12-20T05:03:51.584Z,29.60
2022-12-20T05:04:51.417Z,34.30
2022-12-20T05:05:51.404Z,30.20
2022-12-20T05:06:51.409Z,30.30
2022-12-20T05:07:51.428Z,26.10
2022-12-20T05:08:51.425Z,27.70
2022-12-20T05:09:51.401Z,27.00
2022-12-20T05:10:51.396Z,30.10
2022-12-20T05:11:52.321Z,30.20
2022-12-20T05:12:51.366Z,26.60
2022-12-20T05:13:51.389Z,28.40
2022-12-20T05:14:51.374Z,29.40
2022-12-20T05:15:51.403Z,29.10
2022-12-20T05:16:51.340Z,25.80
2022-12-20T05:17:52.841Z,25.30
2022-12-20T05:18:51.326Z,25.90
2022-12-20T05:19:51.353Z,27.20
2022-12-20T05:20:51.335Z,26.10
2022-12-20T05:21:51.408Z,24.40
2022-12-20T05:22:51.327Z,25.70
2022-12-20T05:23:51.286Z,27.00
2022-12-20T05:24:51.277Z,27.10
2022-12-20T05:25:51.262Z,27.70
2022-12-20T05:26:51.338Z,27.80
2022-12-20T05:27:51.255Z,27.10
2022-12-20T05:28:51.252Z,27.20
2022-12-20T05:29:51.244Z,26.90
2022-12-20T05:30:51.397Z,26.20
2022-12-20T05:31:51.299Z,30.40
2022-12-20T05:32:51.197Z,41.10
2022-12-20T05:33:51.247Z,31.30
2022-12-20T05:34:51.250Z,31.80
2022-12-20T05:35:52.001Z,29.60
2022-12-20T05:36:51.267Z,31.60
2022-12-20T05:37:51.209Z,31.20
2022-12-20T05:38:51.176Z,30.50
2022-12-20T05:39:51.184Z,32.20
2022-12-20T05:40:51.208Z,28.70
2022-12-20T05:41:51.168Z,30.30
2022-12-20T05:42:51.135Z,27.60
2022-12-20T05:43:51.981Z,29.30
2022-12-20T05:44:51.112Z,30.50
2022-12-20T05:45:51.107Z,27.90
2022-12-20T05:46:51.200Z,27.90
2022-12-20T05:47:51.103Z,30.20
2022-12-20T05:48:51.143Z,31.40
2022-12-20T05:49:51.105Z,33.00
2022-12-20T05:50:51.094Z,29.10
2022-12-20T05:51:51.154Z,26.70
2022-12-20T05:52:51.092Z,31.20
2022-12-20T05:53:51.066Z,28.70
2022-12-20T05:54:51.593Z,27.60
2022-12-20T05:55:51.018Z,28.90
2022-12-20T05:56:51.044Z,29.60
2022-12-20T05:57:51.027Z,29.70
2022-12-20T05:58:53.893Z,30.30
2022-12-20T05:59:50.993Z,26.60
2022-12-20T06:00:51.021Z,31.50
2022-12-20T06:01:51.668Z,30.00
2022-12-20T06:02:51.222Z,24.50
2022-12-20T06:03:51.127Z,31.10
2022-12-20T06:04:50.980Z,29.20
2022-12-20T06:05:50.961Z,29.40
2022-12-20T06:06:50.968Z,24.00
2022-12-20T06:07:50.946Z,25.20
2022-12-20T06:08:50.946Z,33.50
2022-12-20T06:09:50.984Z,28.70
2022-12-20T06:10:50.929Z,25.10
2022-12-20T06:11:50.919Z,30.50
2022-12-20T06:12:50.927Z,29.40
2022-12-20T06:13:51.897Z,33.70
2022-12-20T06:14:50.907Z,32.60
2022-12-20T06:15:50.967Z,38.10
2022-12-20T06:16:50.899Z,37.40
2022-12-20T06:17:50.875Z,31.80
2022-12-20T06:18:50.872Z,32.30
2022-12-20T06:19:50.900Z,29.60
2022-12-20T06:20:50.885Z,32.70
2022-12-20T06:21:50.876Z,32.30
2022-12-20T06:22:50.818Z,29.70
2022-12-20T06:23:50.802Z,33.60
2022-12-20T06:24:51.480Z,32.00
2022-12-20T06:25:50.782Z,32.70
2022-12-20T06:26:50.837Z,35.00
2022-12-20T06:27:50.791Z,33.80
2022-12-20T06:28:50.797Z,31.20
2022-12-20T06:29:50.791Z,35.00
2022-12-20T06:30:50.763Z,39.30
2022-12-20T06:31:50.826Z,36.30
2022-12-20T06:32:50.749Z,39.30
2022-12-20T06:33:50.730Z,36.50
2022-12-20T06:34:50.735Z,30.50
2022-12-20T06:35:50.746Z,37.70
2022-12-20T06:36:50.739Z,39.20
2022-12-20T06:38:22.644Z,42.10
2022-12-20T06:38:50.663Z,41.50
2022-12-20T06:39:51.721Z,42.70
2022-12-20T06:40:50.809Z,37.80
2022-12-20T06:41:50.711Z,35.70
2022-12-20T06:42:50.707Z,36.10
2022-12-20T06:43:50.680Z,38.10
2022-12-20T06:44:50.715Z,35.90
2022-12-20T06:45:50.659Z,33.40
2022-12-20T06:46:51.639Z,34.70
2022-12-20T06:47:50.656Z,36.00
2022-12-20T06:48:50.636Z,33.60
2022-12-20T06:49:50.606Z,32.80
2022-12-20T06:50:55.608Z,38.60
2022-12-20T06:51:52.632Z,37.30
2022-12-20T06:52:50.602Z,37.40
2022-12-20T06:53:50.601Z,39.20
2022-12-20T06:54:50.596Z,41.30
2022-12-20T06:55:50.591Z,42.70
2022-12-20T06:56:50.561Z,39.50
2022-12-20T06:57:50.560Z,41.70
2022-12-20T06:58:50.595Z,39.40
2022-12-20T06:59:50.596Z,38.30
2022-12-20T07:00:50.623Z,37.40
2022-12-20T07:01:50.608Z,35.00
2022-12-20T07:02:50.655Z,38.60
2022-12-20T07:03:50.654Z,42.90
2022-12-20T07:04:50.487Z,46.30
2022-12-20T07:05:50.519Z,36.70
2022-12-20T07:06:50.479Z,36.10
2022-12-20T07:07:50.503Z,37.30
2022-12-20T07:08:50.509Z,37.90
2022-12-20T07:09:50.443Z,36.80
2022-12-20T07:10:50.449Z,40.10
2022-12-20T07:11:50.491Z,39.40
2022-12-20T07:12:50.437Z,36.70
2022-12-20T07:13:50.421Z,37.90
2022-12-20T07:14:50.455Z,33.20
2022-12-20T07:15:50.469Z,35.90
2022-12-20T07:16:50.536Z,36.30
2022-12-20T07:17:50.412Z,39.90
2022-12-20T07:18:50.424Z,41.20
2022-12-20T07:19:51.126Z,40.20
2022-12-20T07:20:51.396Z,39.60
2022-12-20T07:21:50.368Z,47.30
2022-12-20T07:22:50.451Z,43.80
2022-12-20T07:23:50.390Z,42.90
2022-12-20T07:24:50.356Z,42.70
2022-12-20T07:25:50.382Z,41.40
2022-12-20T07:26:50.332Z,43.10
2022-12-20T07:27:50.385Z,44.40
2022-12-20T07:28:50.377Z,41.00
2022-12-20T07:29:50.310Z,40.10
2022-12-20T07:30:50.354Z,48.00
2022-12-20T07:31:50.381Z,44.80
2022-12-20T07:32:50.306Z,42.10
2022-12-20T07:33:50.260Z,45.50
2022-12-20T07:34:50.278Z,49.90
2022-12-20T07:35:54.382Z,46.70
2022-12-20T07:36:51.263Z,49.40
2022-12-20T07:37:50.272Z,46.40
2022-12-20T07:38:50.269Z,46.50
2022-12-20T07:39:50.230Z,47.30
2022-12-20T07:40:51.080Z,49.80
2022-12-20T07:41:50.235Z,47.20
2022-12-20T07:42:50.283Z,49.10
2022-12-20T07:43:50.228Z,44.70
2022-12-20T07:44:50.182Z,47.10
2022-12-20T07:45:50.255Z,46.10
2022-12-20T07:46:50.185Z,50.10
2022-12-20T07:47:50.213Z,53.90
2022-12-20T07:48:50.182Z,45.30
2022-12-20T07:49:50.193Z,50.40
2022-12-20T07:50:50.150Z,45.50
2022-12-20T07:51:50.120Z,46.80
2022-12-20T07:52:51.174Z,47.50
2022-12-20T07:53:50.144Z,45.00
2022-12-20T07:54:50.947Z,51.40
2022-12-20T07:55:50.098Z,60.50
2022-12-20T07:56:50.102Z,55.30
2022-12-20T07:57:50.117Z,46.90
2022-12-20T07:58:50.101Z,42.90
2022-12-20T07:59:50.133Z,43.50
2022-12-20T08:00:50.259Z,51.50
2022-12-20T08:01:50.207Z,44.00
2022-12-20T08:02:50.273Z,45.70
2022-12-20T08:03:50.116Z,51.00
2022-12-20T08:04:50.109Z,47.20
2022-12-20T08:05:50.055Z,48.40
2022-12-20T08:06:50.047Z,45.90
2022-12-20T08:07:55.068Z,46.50
2022-12-20T08:08:52.021Z,43.50
2022-12-20T08:09:50.074Z,40.50
2022-12-20T08:10:50.046Z,43.50
2022-12-20T08:11:50.008Z,40.90
2022-12-20T08:12:49.972Z,44.60
2022-12-20T08:13:54.163Z,44.90
2022-12-20T08:14:51.958Z,41.90
2022-12-20T08:15:49.969Z,41.00
2022-12-20T08:16:49.981Z,43.00
2022-12-20T08:18:21.846Z,41.20
2022-12-20T08:18:49.931Z,42.30
2022-12-20T08:19:49.948Z,40.90
2022-12-20T08:20:49.932Z,41.40
2022-12-20T08:21:49.944Z,45.30
2022-12-20T08:22:49.931Z,45.10
2022-12-20T08:23:49.890Z,44.90
2022-12-20T08:24:49.874Z,41.40
2022-12-20T08:25:49.944Z,54.80
2022-12-20T08:26:49.907Z,59.00
2022-12-20T08:27:49.863Z,55.00
2022-12-20T08:28:49.865Z,54.00
2022-12-20T08:29:49.874Z,51.50
2022-12-20T08:30:49.951Z,53.90
2022-12-20T08:31:50.781Z,58.00
2022-12-20T08:32:50.908Z,57.50
2022-12-20T08:33:49.964Z,66.40
2022-12-20T08:34:49.815Z,77.40
2022-12-20T08:35:49.804Z,64.20
2022-12-20T08:36:49.808Z,60.10
2022-12-20T08:37:49.787Z,64.20
2022-12-20T08:38:49.792Z,46.20
2022-12-20T08:39:49.771Z,39.60
2022-12-20T08:40:49.779Z,47.30
2022-12-20T08:41:49.763Z,47.80
2022-12-20T08:42:49.982Z,46.80
2022-12-20T08:43:49.777Z,55.60
2022-12-20T08:44:49.831Z,46.70
2022-12-20T08:45:49.796Z,46.80
2022-12-20T08:46:49.741Z,41.70
2022-12-20T08:47:49.897Z,44.60
2022-12-20T08:48:50.799Z,49.50
2022-12-20T08:49:49.713Z,44.90
2022-12-20T08:50:49.743Z,38.40
2022-12-20T08:51:49.721Z,41.80
2022-12-20T08:52:49.684Z,38.80
2022-12-20T08:53:49.676Z,39.40
2022-12-20T08:54:49.678Z,37.20
2022-12-20T08:55:49.656Z,36.00
2022-12-20T08:56:49.642Z,36.20
2022-12-20T08:57:49.644Z,30.80
2022-12-20T08:58:49.628Z,31.10
2022-12-20T08:59:49.666Z,31.10
2022-12-20T09:00:49.599Z,33.40
2022-12-20T09:01:49.697Z,29.60
2022-12-20T09:02:49.745Z,32.20
2022-12-20T09:03:49.663Z,28.30
2022-12-20T09:04:49.556Z,31.40
2022-12-20T09:05:49.571Z,32.10
2022-12-20T09:06:49.545Z,31.00
2022-12-20T09:07:49.532Z,30.10
2022-12-20T09:08:49.593Z,31.10
2022-12-20T09:09:49.541Z,27.60
2022-12-20T09:10:49.599Z,26.80
2022-12-20T09:11:49.529Z,24.60
2022-12-20T09:12:49.515Z,24.60
2022-12-20T09:13:49.499Z,26.80
2022-12-20T09:14:49.505Z,25.10
2022-12-20T09:15:49.559Z,25.20
2022-12-20T09:16:49.511Z,24.40
2022-12-20T09:17:49.507Z,22.50
2022-12-20T09:18:49.485Z,21.50
2022-12-20T09:19:49.501Z,23.60
2022-12-20T09:20:49.443Z,22.70
2022-12-20T09:21:49.459Z,23.20
2022-12-20T09:22:49.428Z,18.70
2022-12-20T09:23:49.446Z,23.20
2022-12-20T09:24:49.421Z,22.20
2022-12-20T09:25:53.706Z,22.50
2022-12-20T09:27:21.357Z,20.20
2022-12-20T09:27:49.447Z,19.60
2022-12-20T09:29:28.318Z,21.00
2022-12-20T09:29:50.406Z,21.10
2022-12-20T09:30:49.472Z,23.90
2022-12-20T09:31:49.356Z,19.80
2022-12-20T09:32:49.362Z,20.70
2022-12-20T09:33:49.428Z,20.60
2022-12-20T09:34:49.341Z,23.70
2022-12-20T09:35:49.383Z,20.40
2022-12-20T09:36:49.355Z,27.40
2022-12-20T09:37:49.336Z,33.10
2022-12-20T09:38:49.343Z,30.50
2022-12-20T09:39:49.342Z,24.70
2022-12-20T09:40:49.303Z,27.00
2022-12-20T09:41:49.294Z,19.00
2022-12-20T09:42:49.306Z,25.30
2022-12-20T09:43:49.258Z,29.60
2022-12-20T09:46:47.431Z,22.20
2022-12-20T09:47:47.403Z,21.90
2022-12-20T09:48:47.386Z,21.30
2022-12-20T09:49:47.370Z,22.20
2022-12-20T09:50:47.360Z,22.20
2022-12-20T09:51:47.375Z,17.80
2022-12-20T09:52:47.334Z,18.90
2022-12-20T09:53:47.337Z,20.20
2022-12-20T09:54:47.317Z,18.70
2022-12-20T09:55:47.335Z,22.10
2022-12-20T09:56:47.302Z,21.20
2022-12-20T09:57:47.327Z,21.30
2022-12-20T09:58:47.298Z,19.80
2022-12-20T09:59:50.005Z,18.20
2022-12-20T10:00:53.985Z,19.30
2022-12-20T10:01:50.501Z,19.30
2022-12-20T10:03:09.898Z,17.60
2022-12-20T10:03:50.722Z,21.20
2022-12-20T10:04:48.564Z,21.00
2022-12-20T10:06:20.324Z,20.30
2022-12-20T10:06:48.399Z,20.60
2022-12-20T10:07:48.355Z,22.40
2022-12-20T10:08:48.359Z,18.70
2022-12-20T10:09:48.398Z,21.10
2022-12-20T10:10:48.421Z,24.30
2022-12-20T10:11:50.768Z,21.80
2022-12-20T10:12:49.328Z,22.70
2022-12-20T10:13:48.334Z,20.60
2022-12-20T10:14:48.409Z,22.60
2022-12-20T10:15:48.391Z,22.00
2022-12-20T10:16:48.283Z,21.00
2022-12-20T10:17:48.298Z,23.00
2022-12-20T10:18:48.275Z,22.30
2022-12-20T10:19:48.300Z,27.10
2022-12-20T10:20:48.291Z,24.40
2022-12-20T10:21:48.277Z,23.50
2022-12-20T10:22:48.319Z,24.30
2022-12-20T10:23:48.251Z,23.90
2022-12-20T10:24:48.245Z,24.40
2022-12-20T10:25:48.290Z,24.90
2022-12-20T10:26:48.307Z,25.80
2022-12-20T10:27:48.260Z,25.60
2022-12-20T10:28:53.800Z,27.20
2022-12-20T10:29:50.199Z,24.20
2022-12-20T10:30:48.230Z,25.80
2022-12-20T10:31:48.222Z,27.60
2022-12-20T10:32:48.224Z,35.00
2022-12-20T10:33:48.174Z,32.20
2022-12-20T10:34:48.754Z,27.70
2022-12-20T10:35:49.166Z,26.70
2022-12-20T10:36:48.152Z,27.70
2022-12-20T10:38:06.492Z,27.70
2022-12-20T10:38:50.154Z,27.30
2022-12-20T10:39:48.153Z,25.50
2022-12-20T10:41:50.142Z,24.80
2022-12-20T10:42:48.136Z,27.40
2022-12-20T10:43:48.107Z,26.00
2022-12-20T10:44:48.081Z,26.10
2022-12-20T10:45:48.070Z,29.90
2022-12-20T10:46:48.118Z,27.40
2022-12-20T10:47:48.095Z,27.00
2022-12-20T10:48:48.097Z,25.90
2022-12-20T10:49:48.065Z,24.40
2022-12-20T10:50:48.118Z,27.10
2022-12-20T10:51:48.096Z,27.50
2022-12-20T10:52:48.054Z,29.70
2022-12-20T10:53:48.063Z,24.10
2022-12-20T10:54:48.033Z,25.30
2022-12-20T10:55:47.990Z,23.90
2022-12-20T10:56:48.035Z,25.40
2022-12-20T10:57:48.000Z,26.20
2022-12-20T10:58:47.994Z,26.10
2022-12-20T10:59:48.059Z,25.90
2022-12-20T11:00:47.968Z,24.90
2022-12-20T11:01:48.050Z,24.10
2022-12-20T11:02:48.065Z,26.20
2022-12-20T11:03:48.005Z,27.00
2022-12-20T11:04:47.971Z,31.10
2022-12-20T11:05:48.044Z,27.50
2022-12-20T11:06:47.930Z,29.80
2022-12-20T11:08:08.544Z,32.30
2022-12-20T11:08:53.993Z,32.30
2022-12-20T11:09:49.907Z,28.90
2022-12-20T11:10:47.912Z,30.40
2022-12-20T11:11:47.928Z,28.90
2022-12-20T11:12:47.861Z,26.80
2022-12-20T11:13:47.951Z,26.80
2022-12-20T11:14:47.866Z,31.00
2022-12-20T11:15:48.564Z,30.40
2022-12-20T11:16:47.951Z,30.20
2022-12-20T11:17:47.848Z,31.40
2022-12-20T11:18:47.811Z,32.70
2022-12-20T11:19:47.876Z,31.10
2022-12-20T11:20:49.598Z,31.00
2022-12-20T11:21:47.808Z,29.80
2022-12-20T11:22:47.824Z,31.90
2022-12-20T11:23:47.874Z,34.20
2022-12-20T11:24:47.808Z,31.20
2022-12-20T11:25:47.826Z,29.00
2022-12-20T11:26:47.775Z,30.60
2022-12-20T11:28:19.644Z,28.60
2022-12-20T11:28:47.741Z,29.80
2022-12-20T11:29:47.777Z,30.00
2022-12-20T11:30:47.729Z,37.20
2022-12-20T11:31:47.774Z,31.00
2022-12-20T11:32:48.993Z,33.40
2022-12-20T11:33:48.701Z,34.60
2022-12-20T11:34:47.707Z,37.00
2022-12-20T11:35:47.749Z,34.90
2022-12-20T11:36:47.705Z,31.70
2022-12-20T11:37:47.697Z,34.40
2022-12-20T11:38:47.674Z,36.90
2022-12-20T11:39:47.683Z,35.60
2022-12-20T11:40:47.657Z,34.80
2022-12-20T11:41:47.645Z,31.30
2022-12-20T11:42:47.634Z,28.50
2022-12-20T11:44:15.848Z,33.20
2022-12-20T11:44:57.976Z,31.90
2022-12-20T11:45:49.631Z,30.50
2022-12-20T11:46:47.694Z,32.80
2022-12-20T11:47:47.614Z,37.10
2022-12-20T11:48:47.631Z,30.20
2022-12-20T11:49:47.608Z,32.10
2022-12-20T11:50:47.566Z,29.60
2022-12-20T11:51:47.557Z,29.10
2022-12-20T11:52:47.591Z,31.50
2022-12-20T11:53:47.566Z,30.80
2022-12-20T11:54:47.554Z,29.90
2022-12-20T11:56:19.529Z,29.70
2022-12-20T11:56:47.524Z,29.40
2022-12-20T11:58:08.950Z,34.40
2022-12-20T11:58:49.595Z,31.00
2022-12-20T11:59:47.491Z,31.00
2022-12-20T12:00:47.563Z,30.30
2022-12-20T12:01:47.667Z,30.40
2022-12-20T12:02:51.653Z,33.10
2022-12-20T12:03:48.501Z,28.20
2022-12-20T12:04:47.497Z,31.60
2022-12-20T12:05:47.572Z,31.20
2022-12-20T12:06:47.547Z,30.60
2022-12-20T12:07:47.470Z,32.70
2022-12-20T12:08:47.446Z,33.80
2022-12-20T12:09:48.443Z,43.20
2022-12-20T12:10:47.500Z,30.00
2022-12-20T12:12:16.421Z,35.70
2022-12-20T12:12:49.400Z,32.40
2022-12-20T12:13:47.433Z,36.50
2022-12-20T12:14:47.412Z,28.90
2022-12-20T12:15:47.378Z,27.20
2022-12-20T12:16:47.485Z,27.40
2022-12-20T12:17:47.394Z,28.70
2022-12-20T12:18:47.365Z,25.90
2022-12-20T12:19:47.388Z,24.20
2022-12-20T12:20:47.338Z,23.30
2022-12-20T12:21:47.371Z,23.70
2022-12-20T12:22:47.346Z,23.70
2022-12-20T12:23:47.369Z,24.40
2022-12-20T12:24:47.303Z,24.50
2022-12-20T12:25:47.308Z,25.60
2022-12-20T12:26:47.288Z,24.20
2022-12-20T12:27:47.363Z,24.50
2022-12-20T12:28:47.305Z,22.80
2022-12-20T12:30:19.278Z,22.20
2022-12-20T12:30:47.267Z,25.90
2022-12-20T12:31:47.347Z,23.80
2022-12-20T12:32:47.283Z,21.90
2022-12-20T12:33:47.252Z,22.20
2022-12-20T12:34:47.225Z,20.80
2022-12-20T12:35:47.242Z,23.40
2022-12-20T12:36:48.213Z,25.00
2022-12-20T12:37:47.302Z,24.30
2022-12-20T12:39:19.124Z,20.90
2022-12-20T12:39:47.213Z,21.70
2022-12-20T12:40:52.312Z,20.10
2022-12-20T12:41:49.196Z,21.10
2022-12-20T12:42:47.190Z,22.70
2022-12-20T12:43:48.221Z,21.10
2022-12-20T12:44:47.203Z,19.30
2022-12-20T12:45:47.206Z,22.70
2022-12-20T12:46:47.138Z,19.10
2022-12-20T12:47:47.164Z,19.90
2022-12-20T12:48:47.156Z,22.30
2022-12-20T12:49:47.711Z,21.50
2022-12-20T12:50:48.195Z,22.50
2022-12-20T12:51:47.111Z,20.30
2022-12-20T12:52:47.104Z,19.60
2022-12-20T12:53:47.108Z,19.80
2022-12-20T12:54:47.144Z,19.20
2022-12-20T12:55:47.166Z,19.60
2022-12-20T12:56:47.404Z,19.30
2022-12-20T12:57:47.072Z,19.90
2022-12-20T12:58:49.173Z,20.80
2022-12-20T12:59:48.152Z,31.00
2022-12-20T13:00:47.174Z,37.90
2022-12-20T13:01:47.177Z,40.90
2022-12-20T13:02:47.176Z,35.50
2022-12-20T13:03:47.216Z,29.20
2022-12-20T13:05:24.091Z,29.80
2022-12-20T13:05:48.176Z,30.00
2022-12-20T13:06:47.099Z,25.00
2022-12-20T13:07:47.046Z,25.00
2022-12-20T13:08:47.019Z,23.20
2022-12-20T13:09:46.987Z,20.80
2022-12-20T13:10:46.981Z,21.30